Time;durP1;ratioP1;P1;durP2;ratioP2;P2;SDS_P1;SDS_P2;PMS_P1;PMS_P2;Temp;Humidity;BMP_temperature;BMP_pressure;BME280_temperature;BME280_humidity;BME280_pressure;Samples;Min_cycle;Max_cycle;Signal;HPM_P1;HPM_P2
2022/08/17 00:00:04;;;;;;;8.90;8.00;;;;;;;20.33;75.76;100333.48;106146;1277;60489;-83
2022/08/17 00:02:57;;;;;;;10.20;8.50;;;;;;;20.29;75.90;100334.55;105784;1277;74336;-83
2022/08/17 00:05:25;;;;;;;9.70;7.90;;;;;;;20.26;75.92;100333.91;106721;1277;71567;-83
2022/08/17 00:07:51;;;;;;;9.20;7.80;;;;;;;20.24;75.70;100333.99;106507;1277;73019;-83
2022/08/17 00:10:19;;;;;;;10.40;8.30;;;;;;;20.20;75.59;100332.81;105538;1277;62328;-82
2022/08/17 00:12:46;;;;;;;10.20;8.20;;;;;;;20.17;75.72;100330.06;106136;1277;61440;-83
2022/08/17 00:15:13;;;;;;;9.80;8.10;;;;;;;20.13;75.67;100327.80;106709;1277;74298;-84
2022/08/17 00:17:44;;;;;;;8.70;7.70;;;;;;;20.11;75.60;100329.27;107122;1277;70650;-84
2022/08/17 00:20:12;;;;;;;9.00;7.70;;;;;;;20.09;75.56;100333.02;107111;1278;73855;-83
2022/08/17 00:22:40;;;;;;;9.20;8.10;;;;;;;20.06;75.61;100335.77;106265;1277;63377;-82
2022/08/17 00:25:11;;;;;;;10.60;8.20;;;;;;;20.03;75.57;100331.38;106338;1277;60546;-84
2022/08/17 00:27:39;;;;;;;11.10;8.70;;;;;;;20.00;75.66;100334.93;106060;1277;74096;-84
2022/08/17 00:30:09;;;;;;;10.30;8.30;;;;;;;19.96;75.54;100334.17;106747;1277;72793;-84
2022/08/17 00:32:42;;;;;;;10.50;8.70;;;;;;;19.93;75.74;100327.11;106173;1277;73232;-82
2022/08/17 00:35:29;;;;;;;10.10;9.00;;;;;;;19.87;75.86;100327.41;106981;1276;63762;-84
2022/08/17 00:37:57;;;;;;;9.90;8.50;;;;;;;19.83;76.02;100324.13;105928;1277;61332;-85
2022/08/17 00:40:24;;;;;;;9.10;8.20;;;;;;;19.79;76.32;100330.67;106034;1277;74308;-83
2022/08/17 00:42:52;;;;;;;9.00;8.10;;;;;;;19.76;76.38;100330.36;106055;1277;71950;-83
2022/08/17 00:45:19;;;;;;;9.50;8.10;;;;;;;19.71;76.50;100326.98;105926;1278;72742;-83
2022/08/17 00:47:46;;;;;;;9.70;8.10;;;;;;;19.68;76.70;100323.90;106434;1276;62298;-84
2022/08/17 00:50:16;;;;;;;9.50;8.40;;;;;;;19.64;76.70;100324.33;105843;1277;61659;-85
2022/08/17 00:52:51;;;;;;;10.70;8.60;;;;;;;19.61;76.90;100322.39;106385;1277;73134;-83
2022/08/17 00:55:19;;;;;;;10.50;8.00;;;;;;;19.57;76.84;100322.55;106825;1277;72679;-84
2022/08/17 00:57:50;;;;;;;9.20;8.00;;;;;;;19.55;76.99;100323.70;106780;1277;73537;-83
2022/08/17 01:00:27;;;;;;;11.60;8.30;;;;;;;19.52;77.29;100324.67;106200;1277;64973;-83
2022/08/17 01:03:01;;;;;;;10.70;8.40;;;;;;;19.50;77.52;100321.55;106555;1277;62457;-84
2022/08/17 01:05:30;;;;;;;10.70;8.80;;;;;;;19.47;77.43;100324.26;106374;1279;73639;-84
2022/08/17 01:07:59;;;;;;;10.20;8.60;;;;;;;19.43;77.68;100325.42;106265;1277;71399;-83
2022/08/17 01:10:40;;;;;;;9.30;8.20;;;;;;;19.38;77.91;100326.58;107062;1277;73706;-83
2022/08/17 01:13:31;;;;;;;9.20;8.30;;;;;;;19.32;78.15;100326.90;106308;1278;63353;-83
2022/08/17 01:16:27;;;;;;;12.20;7.90;;;;;;;19.28;78.28;100322.36;106528;1277;60881;-83
2022/08/17 01:19:00;;;;;;;9.70;7.90;;;;;;;19.24;78.51;100329.07;106545;1277;74946;-86
2022/08/17 01:21:46;;;;;;;9.90;8.30;;;;;;;19.22;78.96;100320.54;107144;1277;71139;-84
2022/08/17 01:24:13;;;;;;;9.90;8.10;;;;;;;19.20;79.50;100324.48;108203;1277;73074;-83
2022/08/17 01:26:43;;;;;;;10.00;8.80;;;;;;;19.17;79.83;100329.46;107878;1277;63123;-83
2022/08/17 01:29:11;;;;;;;9.20;8.10;;;;;;;19.15;79.88;100333.27;107584;1277;59811;-83
2022/08/17 01:31:43;;;;;;;11.50;8.40;;;;;;;19.13;80.03;100329.83;107277;1277;75378;-82
2022/08/17 01:34:13;;;;;;;10.30;8.60;;;;;;;19.10;80.05;100330.69;107132;1277;72571;-82
2022/08/17 01:36:44;;;;;;;9.60;8.40;;;;;;;19.06;80.03;100334.22;106640;1268;72675;-84
2022/08/17 01:39:22;;;;;;;11.90;9.40;;;;;;;19.03;80.13;100334.12;106462;1278;62683;-83
2022/08/17 01:41:52;;;;;;;9.60;8.60;;;;;;;19.00;80.22;100340.33;106394;1277;60341;-84
2022/08/17 01:44:20;;;;;;;10.70;9.10;;;;;;;18.97;80.54;100337.54;107363;1277;75195;-84
2022/08/17 01:46:47;;;;;;;9.80;8.70;;;;;;;18.95;80.69;100337.41;107019;1277;73124;-84
2022/08/17 01:49:14;;;;;;;11.90;8.80;;;;;;;18.93;80.60;100333.28;107418;1277;73022;-85
2022/08/17 01:51:41;;;;;;;10.00;8.60;;;;;;;18.90;80.84;100334.30;107355;1277;62054;-83
2022/08/17 01:54:12;;;;;;;10.10;8.90;;;;;;;18.87;80.98;100342.67;107476;1277;61480;-83
2022/08/17 01:56:43;;;;;;;10.30;8.80;;;;;;;18.86;81.44;100341.99;106755;1277;74817;-83
2022/08/17 01:59:13;;;;;;;11.50;9.50;;;;;;;18.84;81.74;100341.80;106785;1277;71482;-83
2022/08/17 02:01:42;;;;;;;12.00;9.80;;;;;;;18.83;82.07;100343.54;106254;1277;72954;-84
2022/08/17 02:04:10;;;;;;;10.50;9.10;;;;;;;18.80;82.28;100343.35;107002;1277;63292;-83
2022/08/17 02:06:39;;;;;;;10.60;9.00;;;;;;;18.79;82.43;100345.98;105872;1278;60379;-85
2022/08/17 02:09:19;;;;;;;10.00;9.00;;;;;;;18.78;82.50;100343.09;106265;1276;74194;-83
2022/08/17 02:11:55;;;;;;;10.40;8.80;;;;;;;18.76;82.46;100343.23;106705;1279;71152;-84
2022/08/17 02:14:24;;;;;;;11.60;8.50;;;;;;;18.73;82.54;100337.70;108107;1276;73078;-83
2022/08/17 02:16:52;;;;;;;10.70;8.90;;;;;;;18.72;82.72;100336.45;108063;1277;64579;-84
2022/08/17 02:19:21;;;;;;;9.40;8.40;;;;;;;18.71;83.01;100336.05;108149;1276;59668;-83
2022/08/17 02:21:50;;;;;;;9.60;8.70;;;;;;;18.71;83.04;100335.66;108080;1278;74116;-83
2022/08/17 02:24:27;;;;;;;10.30;8.90;;;;;;;18.71;83.03;100335.06;108219;1276;71502;-84
2022/08/17 02:27:13;;;;;;;9.80;8.80;;;;;;;18.71;82.90;100333.61;108209;1277;74952;-83
2022/08/17 02:29:40;;;;;;;9.90;8.80;;;;;;;18.71;82.93;100333.13;108105;1278;60834;-83
2022/08/17 02:32:18;;;;;;;10.40;9.20;;;;;;;18.68;82.87;100328.83;108124;1277;61359;-83
2022/08/17 02:34:53;;;;;;;10.30;9.20;;;;;;;18.68;82.77;100328.39;108139;1278;73963;-84
2022/08/17 02:37:20;;;;;;;10.30;9.30;;;;;;;18.66;82.72;100333.03;108135;1279;71593;-83
2022/08/17 02:39:47;;;;;;;12.20;10.00;;;;;;;18.65;82.82;100331.50;108106;1279;73304;-83
2022/08/17 02:42:14;;;;;;;10.80;9.20;;;;;;;18.64;82.83;100333.09;108144;1279;62301;-83
2022/08/17 02:44:42;;;;;;;10.70;9.60;;;;;;;18.62;82.69;100334.98;108128;1279;59218;-83
2022/08/17 02:47:09;;;;;;;10.40;9.40;;;;;;;18.61;82.68;100335.23;108146;1278;74190;-83
2022/08/17 02:49:38;;;;;;;11.20;9.70;;;;;;;18.60;82.79;100330.21;108049;1279;71066;-83
2022/08/17 02:52:06;;;;;;;10.90;9.50;;;;;;;18.58;83.05;100329.27;107706;1279;73098;-83
2022/08/17 02:54:36;;;;;;;10.30;9.30;;;;;;;18.57;83.34;100327.23;107099;1278;63210;-84
2022/08/17 02:57:09;;;;;;;12.00;9.90;;;;;;;18.56;83.24;100327.55;106966;1279;60064;-84
2022/08/17 02:59:38;;;;;;;10.90;9.80;;;;;;;18.54;83.27;100329.34;107193;1279;72847;-84
2022/08/17 03:02:07;;;;;;;11.00;9.90;;;;;;;18.52;83.21;100330.16;106135;1279;71541;-83
2022/08/17 03:04:34;;;;;;;11.70;10.10;;;;;;;18.48;83.09;100333.73;106496;1279;73048;-84
2022/08/17 03:07:03;;;;;;;16.30;10.60;;;;;;;18.45;83.27;100337.52;106430;1279;62060;-83
2022/08/17 03:09:30;;;;;;;13.50;10.80;;;;;;;18.41;83.41;100340.61;106061;1279;61222;-83
2022/08/17 03:12:05;;;;;;;12.20;10.20;;;;;;;18.39;83.59;100334.83;106417;1279;74194;-83
2022/08/17 03:14:32;;;;;;;11.80;10.60;;;;;;;18.36;83.50;100335.66;105709;1279;70650;-84
2022/08/17 03:17:04;;;;;;;12.60;10.90;;;;;;;18.32;83.53;100334.07;105632;1279;72761;-83
2022/08/17 03:19:31;;;;;;;12.50;11.10;;;;;;;18.28;83.54;100337.21;105770;1279;62252;-83
2022/08/17 03:21:58;;;;;;;11.80;10.70;;;;;;;18.23;83.92;100338.45;105817;1279;60515;-82
2022/08/17 03:24:45;;;;;;;11.50;10.40;;;;;;;18.18;84.12;100342.05;105839;1279;75740;-84
2022/08/17 03:27:15;;;;;;;12.20;10.90;;;;;;;18.14;84.41;100339.32;105586;1279;72094;-84
2022/08/17 03:29:42;;;;;;;10.90;9.70;;;;;;;18.12;84.65;100338.07;106150;1278;73281;-84
2022/08/17 03:32:14;;;;;;;10.60;9.60;;;;;;;18.07;84.75;100337.11;105430;1278;63028;-83
2022/08/17 03:34:41;;;;;;;11.50;10.40;;;;;;;18.04;84.93;100336.73;105973;1279;60860;-83
2022/08/17 03:37:08;;;;;;;10.70;9.70;;;;;;;17.99;85.08;100337.46;105664;1279;75326;-83
2022/08/17 03:39:35;;;;;;;11.50;10.30;;;;;;;17.94;85.33;100334.61;106258;1279;72421;-83
2022/08/17 03:42:07;;;;;;;11.90;10.80;;;;;;;17.89;85.67;100333.91;105720;1278;72990;-83
2022/08/17 03:44:56;;;;;;;11.50;10.20;;;;;;;17.85;85.82;100332.80;105302;1279;64418;-82
2022/08/17 03:58:28;;;;;;;12.40;10.70;;;;;;;17.74;86.91;100332.98;105718;1279;62256;-84
2022/08/17 04:00:57;;;;;;;11.70;10.50;;;;;;;17.73;86.94;100331.55;105633;1279;60643;-84
2022/08/17 04:03:24;;;;;;;12.20;10.90;;;;;;;17.71;86.89;100329.23;106278;1279;74154;-84
2022/08/17 04:05:52;;;;;;;11.70;10.50;;;;;;;17.70;87.02;100330.64;107101;1279;71414;-84
2022/08/17 04:08:19;;;;;;;12.10;10.90;;;;;;;17.69;87.15;100326.62;106801;1279;74042;-84
2022/08/17 04:10:46;;;;;;;12.10;10.90;;;;;;;17.66;87.39;100330.42;106238;1279;62336;-86
2022/08/17 04:13:13;;;;;;;13.40;11.10;;;;;;;17.65;87.70;100333.98;106486;1279;61412;-83
2022/08/17 04:15:50;;;;;;;13.30;10.90;;;;;;;17.65;87.76;100336.45;106011;1279;75127;-84
2022/08/17 04:18:17;;;;;;;13.00;11.20;;;;;;;17.66;87.90;100339.59;106468;1279;71398;-84
2022/08/17 04:20:45;;;;;;;12.60;10.90;;;;;;;17.67;87.86;100336.35;105936;1279;73099;-84
2022/08/17 04:23:15;;;;;;;11.80;10.60;;;;;;;17.70;87.91;100333.63;106109;1279;62709;-84
2022/08/17 04:25:47;;;;;;;11.40;10.20;;;;;;;17.70;87.97;100333.70;105831;1279;60632;-84
2022/08/17 04:28:15;;;;;;;13.10;10.00;;;;;;;17.71;87.89;100337.14;106711;1279;73989;-83
2022/08/17 04:30:43;;;;;;;14.30;10.90;;;;;;;17.71;88.03;100340.16;105667;1279;72021;-84
2022/08/17 04:33:14;;;;;;;19.40;17.40;;;;;;;17.74;88.33;100341.08;106657;1279;74335;-83
2022/08/17 04:35:50;;;;;;;15.50;10.80;;;;;;;17.77;88.56;100340.83;106970;1279;62250;-83
2022/08/17 04:38:20;;;;;;;14.20;11.60;;;;;;;17.81;88.68;100345.39;106286;1279;61529;-83
2022/08/17 04:43:34;;;;;;;11.90;10.30;;;;;;;17.90;88.62;100345.31;106832;1279;71550;-83
2022/08/17 04:46:07;;;;;;;15.60;12.60;;;;;;;17.94;88.51;100347.00;106492;1279;72971;-83
2022/08/17 04:48:41;;;;;;;22.80;19.50;;;;;;;17.99;88.24;100349.21;106363;1279;63011;-83
2022/08/17 04:51:14;;;;;;;14.80;13.10;;;;;;;18.03;88.16;100352.44;106756;1279;60434;-83
2022/08/17 04:53:44;;;;;;;19.10;16.40;;;;;;;18.07;88.10;100352.11;106448;1279;74558;-84
2022/08/17 04:56:20;;;;;;;12.30;10.60;;;;;;;18.13;87.90;100354.00;106686;1279;71248;-82
2022/08/17 04:58:49;;;;;;;19.80;16.10;;;;;;;18.17;87.76;100359.80;106936;1279;73849;-82
2022/08/17 05:01:18;;;;;;;12.00;10.40;;;;;;;18.23;87.57;100361.96;106842;1278;63312;-82
2022/08/17 05:03:49;;;;;;;11.70;9.40;;;;;;;18.30;87.81;100368.68;106225;1279;62112;-82
2022/08/17 05:06:16;;;;;;;11.40;9.40;;;;;;;18.39;87.54;100368.82;106943;1278;75152;-83
2022/08/17 05:08:43;;;;;;;10.60;9.50;;;;;;;18.44;87.38;100365.33;107001;1279;72427;-82
2022/08/17 05:11:11;;;;;;;12.40;9.80;;;;;;;18.51;87.39;100369.25;106393;1279;74345;-82
2022/08/17 05:13:38;;;;;;;11.20;9.60;;;;;;;18.61;87.05;100370.48;106094;1279;62337;-82
2022/08/17 05:16:07;;;;;;;10.50;9.40;;;;;;;18.69;86.45;100370.33;106318;1268;60484;-82
2022/08/17 05:18:36;;;;;;;12.10;9.90;;;;;;;18.78;86.51;100371.23;106467;1276;76533;-84
2022/08/17 05:21:03;;;;;;;13.00;9.60;;;;;;;18.90;85.96;100371.54;106802;1276;72598;-84
2022/08/17 05:23:32;;;;;;;11.30;10.10;;;;;;;19.01;85.39;100370.14;106422;1275;74136;-83
2022/08/17 05:26:11;;;;;;;11.70;10.20;;;;;;;19.10;84.87;100373.13;106824;1274;61957;-83
2022/08/17 05:28:51;;;;;;;12.00;10.00;;;;;;;19.17;84.15;100374.80;105816;1277;61156;-83
2022/08/17 05:31:20;;;;;;;11.20;10.00;;;;;;;19.25;84.04;100378.23;106761;1276;74942;-83
2022/08/17 05:33:48;;;;;;;10.70;9.60;;;;;;;19.33;83.76;100388.77;106117;1277;72724;-83
2022/08/17 05:36:16;;;;;;;11.50;9.80;;;;;;;19.46;83.66;100388.06;106302;1276;70473;-83
2022/08/17 05:39:03;;;;;;;12.90;10.30;;;;;;;19.63;83.28;100386.20;106328;1276;63739;-83
2022/08/17 05:41:30;;;;;;;11.00;9.60;;;;;;;19.78;82.75;100384.80;106375;1276;61611;-83
2022/08/17 05:43:57;;;;;;;12.10;10.30;;;;;;;19.88;81.59;100387.79;106081;1276;74570;-83
2022/08/17 05:46:27;;;;;;;11.60;9.50;;;;;;;19.96;81.08;100386.15;106117;1276;73122;-83
2022/08/17 05:49:09;;;;;;;12.80;9.80;;;;;;;20.06;80.50;100386.19;106086;1276;72963;-83
2022/08/17 05:51:51;;;;;;;11.50;9.90;;;;;;;20.21;80.17;100384.46;106931;1276;62445;-83
2022/08/17 05:54:49;;;;;;;11.10;9.80;;;;;;;20.35;79.11;100386.40;106250;1276;61280;-84
2022/08/17 05:57:34;;;;;;;12.00;9.00;;;;;;;20.49;78.92;100386.17;106359;1276;76807;-83
2022/08/17 06:00:14;;;;;;;13.00;9.70;;;;;;;20.61;78.19;100389.32;105694;1276;71438;-83
2022/08/17 06:03:06;;;;;;;10.20;8.70;;;;;;;20.65;77.95;100386.09;106205;1276;74093;-82
2022/08/17 06:05:57;;;;;;;13.00;9.30;;;;;;;20.73;78.03;100392.55;106080;1276;63216;-83
2022/08/17 06:08:44;;;;;;;10.80;8.80;;;;;;;20.84;77.91;100388.33;105664;1276;61399;-84
2022/08/17 06:11:35;;;;;;;10.90;8.70;;;;;;;20.97;77.56;100388.05;105925;1276;74161;-82
2022/08/17 06:14:20;;;;;;;10.70;9.60;;;;;;;21.10;77.36;100388.27;106232;1276;71510;-82
2022/08/17 06:16:54;;;;;;;11.60;9.30;;;;;;;21.18;76.64;100391.06;105907;1275;71940;-82
2022/08/17 06:19:46;;;;;;;12.60;9.60;;;;;;;21.27;76.49;100390.02;106089;1276;63058;-83
2022/08/17 06:22:18;;;;;;;11.10;8.50;;;;;;;21.37;76.09;100389.42;106084;1274;61608;-83
2022/08/17 06:24:56;;;;;;;11.20;9.00;;;;;;;21.44;75.82;100385.14;106553;1270;74923;31
2022/08/17 06:27:47;;;;;;;10.30;8.50;;;;;;;21.56;75.97;100381.80;105739;1277;74012;-82
2022/08/17 06:30:29;;;;;;;9.50;8.50;;;;;;;21.73;75.90;100383.27;106222;1276;72936;-84
2022/08/17 06:33:31;;;;;;;10.40;8.70;;;;;;;21.96;75.91;100384.31;106151;1276;64032;-82
2022/08/17 06:36:09;;;;;;;10.70;7.70;;;;;;;22.15;75.14;100383.65;105542;1276;62902;-80
2022/08/17 06:38:54;;;;;;;14.70;9.00;;;;;;;22.27;74.13;100383.05;106051;1276;75016;-80
2022/08/17 06:41:48;;;;;;;15.50;9.20;;;;;;;22.37;73.39;100379.66;105459;1277;71323;-80
2022/08/17 06:44:37;;;;;;;13.40;9.00;;;;;;;22.43;72.73;100379.04;105534;1276;72749;-78
2022/08/17 06:47:28;;;;;;;34.30;30.70;;;;;;;22.51;72.44;100379.25;105737;1276;62507;-82
2022/08/17 06:50:02;;;;;;;16.40;9.10;;;;;;;22.56;72.00;100381.39;106336;1276;62402;-82
2022/08/17 06:52:34;;;;;;;12.40;8.60;;;;;;;22.66;72.03;100379.98;105577;1276;73914;-82
2022/08/17 06:55:25;;;;;;;12.70;8.20;;;;;;;22.81;71.71;100376.00;105533;1276;71511;-82
2022/08/17 06:57:58;;;;;;;11.10;7.50;;;;;;;22.97;71.06;100374.28;105775;1276;74037;-82
2022/08/17 07:00:32;;;;;;;113.40;101.10;;;;;;;23.09;70.74;100375.95;106104;1276;62322;-85
2022/08/17 07:03:09;;;;;;;74.10;60.10;;;;;;;23.23;70.53;100376.70;105773;1276;61891;-84
2022/08/17 07:05:52;;;;;;;71.50;60.20;;;;;;;23.38;70.29;100377.33;105213;1276;75080;-83
2022/08/17 07:09:00;;;;;;;8.50;7.50;;;;;;;23.55;69.08;100378.05;105819;1276;71168;-84
2022/08/17 07:11:36;;;;;;;10.50;8.20;;;;;;;23.67;68.40;100384.46;105604;1277;73535;-83
2022/08/17 07:14:34;;;;;;;10.40;7.90;;;;;;;23.80;68.68;100382.65;105532;1277;61985;-82
2022/08/17 07:17:07;;;;;;;9.00;7.90;;;;;;;23.96;68.09;100382.49;106080;1276;61725;-81
2022/08/17 07:19:39;;;;;;;9.00;7.60;;;;;;;24.09;68.05;100382.52;106276;1276;76295;-83
2022/08/17 07:22:46;;;;;;;11.40;7.90;;;;;;;24.17;67.64;100379.33;105891;1276;72445;-83
2022/08/17 07:25:26;;;;;;;10.40;8.50;;;;;;;24.33;68.13;100382.70;106272;1277;73634;-82
2022/08/17 07:27:58;;;;;;;10.10;7.90;;;;;;;24.49;67.46;100382.96;106158;1276;61348;-82
2022/08/17 07:30:50;;;;;;;8.60;6.90;;;;;;;24.53;65.87;100384.32;106179;1277;61216;-82
2022/08/17 07:33:27;;;;;;;8.30;7.20;;;;;;;24.45;65.24;100388.31;105500;1277;75370;-82
2022/08/17 07:35:58;;;;;;;8.70;7.00;;;;;;;24.45;65.03;100387.66;106668;1276;72686;-81
2022/08/17 07:38:27;;;;;;;8.80;7.20;;;;;;;24.45;64.63;100388.16;105849;1278;73807;-82
2022/08/17 07:41:00;;;;;;;9.20;7.10;;;;;;;24.54;64.73;100394.55;106517;1277;64014;-82
2022/08/17 07:43:40;;;;;;;9.20;7.40;;;;;;;24.63;64.23;100393.50;105490;1279;61769;-81
2022/08/17 07:49:10;;;;;;;11.80;7.80;;;;;;;24.87;62.91;100391.52;106135;1265;66550;-81
2022/08/17 07:51:44;;;;;;;13.20;8.80;;;;;;;25.04;62.68;100388.30;106184;1277;73950;-82
2022/08/17 07:54:14;;;;;;;10.90;8.30;;;;;;;25.24;62.74;100386.96;106391;1279;63267;-81
2022/08/17 07:56:45;;;;;;;10.30;8.20;;;;;;;25.48;62.66;100385.13;107818;1279;61398;-81
2022/08/17 07:59:24;;;;;;;11.30;8.30;;;;;;;25.66;61.83;100388.98;107894;1278;75011;-81
2022/08/17 08:01:56;;;;;;;13.80;11.00;;;;;;;25.82;61.46;100391.84;107940;1277;71533;-83
2022/08/17 08:04:27;;;;;;;11.40;8.00;;;;;;;26.02;61.20;100396.05;107699;1279;72932;-80
2022/08/17 08:07:26;;;;;;;10.90;7.40;;;;;;;26.23;60.61;100394.71;107162;1279;60994;-82
2022/08/17 08:10:12;;;;;;;12.80;7.50;;;;;;;26.37;59.89;100396.14;106308;1278;61437;-81
2022/08/17 08:13:10;;;;;;;10.60;7.60;;;;;;;26.57;59.08;100396.02;106884;1277;76679;-82
2022/08/17 08:15:47;;;;;;;10.40;6.80;;;;;;;26.71;58.22;100396.34;106730;1279;71362;-83
2022/08/17 08:18:25;;;;;;;9.80;7.90;;;;;;;26.73;57.85;100400.40;106109;1278;72959;-83
2022/08/17 08:21:34;;;;;;;10.10;7.50;;;;;;;26.76;57.35;100402.33;106269;1278;63108;-84
2022/08/17 08:24:38;;;;;;;10.90;6.40;;;;;;;26.82;56.58;100407.80;107107;1277;61217;-82
2022/08/17 08:27:31;;;;;;;10.70;6.60;;;;;;;26.96;57.05;100405.78;106574;1278;75023;-81
2022/08/17 08:30:06;;;;;;;9.10;6.10;;;;;;;27.15;57.13;100404.94;106119;1277;72359;-82
2022/08/17 08:32:58;;;;;;;9.50;6.10;;;;;;;27.34;56.73;100406.78;106347;1277;72935;-81
2022/08/17 08:35:53;;;;;;;10.40;6.00;;;;;;;27.53;55.44;100405.46;106416;1278;61284;-82
2022/08/17 08:38:55;;;;;;;10.50;5.80;;;;;;;27.59;54.49;100413.98;106585;1277;60888;-83
2022/08/17 08:41:50;;;;;;;9.00;5.60;;;;;;;27.66;54.52;100418.40;106790;1277;76017;-84
2022/08/17 08:44:46;;;;;;;9.30;5.50;;;;;;;27.83;54.45;100419.27;107214;1279;71354;-83
2022/08/17 08:47:36;;;;;;;8.50;5.90;;;;;;;28.13;53.97;100415.85;106844;1279;72700;-82
2022/08/17 08:50:21;;;;;;;10.00;5.80;;;;;;;28.39;53.08;100413.59;106696;1279;61137;-85
2022/08/17 08:53:22;;;;;;;8.20;5.70;;;;;;;28.67;52.62;100405.05;106663;1279;62787;-85
2022/08/17 08:56:22;;;;;;;11.30;5.30;;;;;;;29.03;52.62;100411.96;106067;1279;77085;-85
2022/08/17 08:59:01;;;;;;;9.20;4.80;;;;;;;29.39;50.33;100407.27;107188;1278;70322;-85
2022/08/17 09:01:53;;;;;;;8.10;5.00;;;;;;;29.61;49.24;100409.77;106380;1279;72784;-84
2022/08/17 09:04:35;;;;;;;8.40;5.10;;;;;;;29.72;48.06;100415.81;107077;1279;61306;-82
2022/08/17 09:07:35;;;;;;;8.50;5.10;;;;;;;29.71;48.21;100412.88;106843;1279;60887;-85
2022/08/17 09:10:12;;;;;;;7.40;4.40;;;;;;;29.87;47.49;100412.39;106658;1279;76229;-85
2022/08/17 09:12:52;;;;;;;9.00;4.90;;;;;;;29.93;46.04;100410.17;106762;1279;72334;-86
2022/08/17 09:15:26;;;;;;;7.70;4.80;;;;;;;29.97;47.30;100411.09;107074;1278;73516;-85
2022/08/17 09:18:06;;;;;;;8.70;4.60;;;;;;;30.10;47.33;100413.46;106545;1278;61658;-85
2022/08/17 09:21:20;;;;;;;6.40;4.40;;;;;;;30.14;46.58;100415.80;106890;1279;61375;-85
2022/08/17 09:23:58;;;;;;;9.30;4.70;;;;;;;30.20;46.79;100420.19;106770;1279;74940;-85
2022/08/17 09:26:33;;;;;;;7.00;3.80;;;;;;;30.27;46.89;100419.63;107001;1279;72258;-84
2022/08/17 09:29:07;;;;;;;9.30;4.60;;;;;;;30.31;45.53;100417.23;106735;1279;73010;-85
2022/08/17 09:31:40;;;;;;;9.10;4.40;;;;;;;30.34;46.07;100415.35;106908;1279;60788;-85
2022/08/17 09:34:20;;;;;;;7.50;3.70;;;;;;;30.50;45.78;100416.80;106370;1279;62518;-84
2022/08/17 09:36:57;;;;;;;8.30;4.00;;;;;;;30.63;45.14;100413.20;106468;1279;76054;-84
2022/08/17 09:39:37;;;;;;;6.80;3.90;;;;;;;30.76;44.47;100405.42;105790;1279;72420;-84
2022/08/17 09:42:13;;;;;;;6.20;3.60;;;;;;;30.86;43.54;100409.49;106555;1279;73427;-84
2022/08/17 09:44:50;;;;;;;7.30;4.10;;;;;;;30.96;43.59;100404.98;105629;1279;61295;-85
2022/08/17 09:47:44;;;;;;;7.90;3.80;;;;;;;31.13;43.71;100407.11;105833;1279;61212;-84
2022/08/17 09:50:19;;;;;;;7.70;4.00;;;;;;;31.29;43.17;100408.21;106932;1279;76010;-79
2022/08/17 09:53:07;;;;;;;4.40;2.70;;;;;;;31.47;41.83;100403.80;106182;1279;74098;-81
2022/08/17 09:56:07;;;;;;;3.60;2.50;;;;;;;31.46;38.04;100399.32;106667;1279;72724;-80
2022/08/17 09:58:55;;;;;;;3.50;2.40;;;;;;;31.41;39.15;100401.42;107019;1267;61283;-81
2022/08/17 10:01:38;;;;;;;5.50;2.60;;;;;;;31.44;38.92;100399.55;107324;1277;60414;-80
2022/08/17 10:04:18;;;;;;;4.60;2.30;;;;;;;31.53;38.40;100399.15;104393;1277;74332;-82
2022/08/17 10:07:11;;;;;;;2.80;2.30;;;;;;;31.67;38.00;100398.83;105363;1279;70600;-82
2022/08/17 10:09:43;;;;;;;3.70;2.50;;;;;;;31.87;37.90;100402.27;106217;1277;72944;-82
2022/08/17 10:12:36;;;;;;;6.60;2.30;;;;;;;32.06;38.41;100398.10;106348;1278;61801;-80
2022/08/17 10:15:21;;;;;;;4.20;2.40;;;;;;;32.28;37.37;100396.21;105512;1270;62392;-82
2022/08/17 10:18:06;;;;;;;4.20;2.30;;;;;;;32.40;36.04;100395.27;106563;1276;74878;-80
2022/08/17 10:20:45;;;;;;;4.60;2.40;;;;;;;32.44;35.63;100395.11;106717;1276;71951;-81
2022/08/17 10:26:18;;;;;;;4.00;2.10;;;;;;;32.73;34.81;100382.91;105706;1276;61703;-81
2022/08/17 10:28:51;;;;;;;4.90;2.20;;;;;;;32.87;35.46;100386.83;106519;1276;60366;-81
2022/08/17 10:31:28;;;;;;;4.70;2.50;;;;;;;33.08;35.24;100381.19;106321;1276;76092;-80
2022/08/17 10:34:28;;;;;;;3.40;2.20;;;;;;;33.32;34.02;100372.91;105281;1276;71396;-81
2022/08/17 10:37:18;;;;;;;3.00;2.10;;;;;;;33.51;34.01;100375.02;106294;1276;73540;-81
2022/08/17 10:40:08;;;;;;;3.80;2.20;;;;;;;33.56;32.69;100374.10;106820;1276;62107;-83
2022/08/17 10:42:50;;;;;;;3.40;2.10;;;;;;;33.67;32.89;100376.17;105462;1276;63850;-81
2022/08/17 10:45:36;;;;;;;3.30;2.20;;;;;;;33.88;33.38;100377.91;105160;1274;75022;-82
2022/08/17 10:48:05;;;;;;;4.00;2.30;;;;;;;34.06;32.45;100372.30;105675;1276;72953;-82
2022/08/17 10:50:54;;;;;;;4.70;2.10;;;;;;;34.25;32.33;100367.62;105697;1276;74139;-82
2022/08/17 10:53:39;;;;;;;3.50;2.10;;;;;;;34.47;31.92;100369.51;105515;1276;63274;-81
2022/08/17 10:56:16;;;;;;;3.50;2.10;;;;;;;34.74;32.31;100369.84;105170;1276;61313;-80
2022/08/17 10:58:52;;;;;;;2.90;2.20;;;;;;;34.89;30.46;100368.70;106076;1276;73909;-81
2022/08/17 11:01:31;;;;;;;4.50;2.10;;;;;;;34.86;30.53;100364.91;105128;1275;71486;-82
2022/08/17 11:04:03;;;;;;;4.20;2.10;;;;;;;34.78;30.71;100366.80;105564;1276;72860;-81
2022/08/17 11:07:00;;;;;;;3.40;2.20;;;;;;;34.75;30.48;100361.83;105680;1276;61596;-81
2022/08/17 11:10:15;;;;;;;3.70;2.20;;;;;;;34.74;30.45;100361.71;106116;1276;61390;-81
2022/08/17 11:12:56;;;;;;;5.80;2.10;;;;;;;34.70;30.47;100359.14;105063;1276;74211;-82
2022/08/17 11:15:38;;;;;;;2.80;2.10;;;;;;;34.61;30.86;100357.98;105098;1275;71588;-80
2022/08/17 11:18:43;;;;;;;7.00;2.10;;;;;;;34.49;31.02;100358.96;105895;1276;73017;-82
2022/08/17 11:21:27;;;;;;;4.20;2.10;;;;;;;34.47;31.60;100357.00;105134;1276;62231;-82
2022/08/17 11:24:04;;;;;;;4.40;2.00;;;;;;;34.40;30.87;100355.52;105242;1276;61305;-80
2022/08/17 11:26:34;;;;;;;3.20;1.70;;;;;;;34.41;31.12;100353.42;105647;1276;75141;-81
2022/08/17 11:29:08;;;;;;;4.80;2.00;;;;;;;34.55;31.84;100352.69;105690;1278;72544;-80
2022/08/17 11:31:37;;;;;;;3.30;2.10;;;;;;;34.67;30.12;100349.78;105517;1276;74201;-81
2022/08/17 11:34:12;;;;;;;4.60;1.90;;;;;;;34.81;30.61;100338.91;105098;1276;61157;-82
2022/08/17 11:36:50;;;;;;;4.40;2.10;;;;;;;34.90;30.42;100341.56;105672;1276;61623;-81
2022/08/17 11:39:43;;;;;;;3.70;1.90;;;;;;;34.96;30.14;100343.94;105901;1270;74927;-80
2022/08/17 11:42:47;;;;;;;3.20;2.30;;;;;;;34.92;28.81;100342.41;106201;1276;72410;-82
2022/08/17 11:45:37;;;;;;;4.90;2.10;;;;;;;34.99;28.88;100337.34;106053;1274;73497;-80
2022/08/17 11:54:30;;;;;;;4.30;1.80;;;;;;;35.10;28.68;100344.74;105527;1274;76193;-84
2022/08/17 11:57:20;;;;;;;3.00;1.90;;;;;;;34.99;30.00;100344.73;107132;1275;70522;-84
2022/08/17 11:59:58;;;;;;;5.20;1.90;;;;;;;34.95;30.00;100340.13;106979;1274;73339;-87
2022/08/17 12:02:30;;;;;;;3.00;1.70;;;;;;;34.92;29.16;100344.95;107369;1274;60848;-84
2022/08/17 12:05:03;;;;;;;6.40;1.90;;;;;;;34.85;29.31;100339.45;108257;1274;61721;-83
2022/08/17 12:07:47;;;;;;;3.30;1.80;;;;;;;34.92;28.99;100336.43;108586;1276;74521;-83
2022/08/17 12:10:20;;;;;;;3.30;1.80;;;;;;;35.25;29.53;100338.10;108423;1276;71372;-83
2022/08/17 12:12:52;;;;;;;4.90;1.90;;;;;;;35.49;28.45;100334.81;108510;1274;73968;-83
2022/08/17 12:15:34;;;;;;;3.70;1.80;;;;;;;35.94;28.14;100336.12;108458;1274;60403;-82
2022/08/17 12:18:01;;;;;;;2.80;1.90;;;;;;;36.69;26.59;100332.48;108414;1274;60385;-81
2022/08/17 12:20:27;;;;;;;2.70;1.70;;;;;;;37.34;25.93;100334.33;107892;1274;76110;-82
2022/08/17 12:23:32;;;;;;;4.80;1.80;;;;;;;37.97;25.95;100331.45;106209;1276;72404;-81